sensor_id;sensor_type;location;lat;lon;timestamp;P1;durP1;ratioP1;P2;durP2;ratioP2
56712;SDS011;42589;45.536;9.032;2023-01-04T00:00:18;21.73;;;18.63;;
56712;SDS011;42589;45.536;9.032;2023-01-04T00:03:19;22.70;;;18.98;;
56712;SDS011;42589;45.536;9.032;2023-01-04T00:06:20;21.73;;;18.50;;
56712;SDS011;42589;45.536;9.032;2023-01-04T00:09:21;21.35;;;17.95;;
56712;SDS011;42589;45.536;9.032;2023-01-04T00:12:21;24.25;;;18.55;;
56712;SDS011;42589;45.536;9.032;2023-01-04T00:15:22;21.98;;;18.73;;
56712;SDS011;42589;45.536;9.032;2023-01-04T00:18:23;23.15;;;18.55;;
56712;SDS011;42589;45.536;9.032;2023-01-04T00:21:24;23.45;;;18.38;;
56712;SDS011;42589;45.536;9.032;2023-01-04T00:24:25;21.60;;;18.30;;
56712;SDS011;42589;45.536;9.032;2023-01-04T00:27:45;22.13;;;18.63;;
56712;SDS011;42589;45.536;9.032;2023-01-04T00:30:46;22.88;;;20.02;;
56712;SDS011;42589;45.536;9.032;2023-01-04T00:33:47;24.02;;;19.17;;
56712;SDS011;42589;45.536;9.032;2023-01-04T00:36:48;25.10;;;19.83;;
56712;SDS011;42589;45.536;9.032;2023-01-04T00:39:48;23.80;;;20.30;;
56712;SDS011;42589;45.536;9.032;2023-01-04T00:42:49;22.15;;;17.98;;
56712;SDS011;42589;45.536;9.032;2023-01-04T00:45:49;21.90;;;18.05;;
56712;SDS011;42589;45.536;9.032;2023-01-04T00:48:50;21.15;;;18.23;;
56712;SDS011;42589;45.536;9.032;2023-01-04T00:51:50;19.67;;;17.25;;
56712;SDS011;42589;45.536;9.032;2023-01-04T00:54:51;20.48;;;17.58;;
56712;SDS011;42589;45.536;9.032;2023-01-04T00:57:52;21.40;;;18.05;;
56712;SDS011;42589;45.536;9.032;2023-01-04T01:00:53;19.83;;;17.73;;
56712;SDS011;42589;45.536;9.032;2023-01-04T01:03:56;20.75;;;18.35;;
56712;SDS011;42589;45.536;9.032;2023-01-04T01:06:57;21.90;;;18.40;;
56712;SDS011;42589;45.536;9.032;2023-01-04T01:09:58;21.00;;;17.95;;
56712;SDS011;42589;45.536;9.032;2023-01-04T01:12:59;20.23;;;17.52;;
56712;SDS011;42589;45.536;9.032;2023-01-04T01:16:01;19.70;;;17.10;;
56712;SDS011;42589;45.536;9.032;2023-01-04T01:19:01;21.02;;;17.90;;
56712;SDS011;42589;45.536;9.032;2023-01-04T01:22:02;21.63;;;17.40;;
56712;SDS011;42589;45.536;9.032;2023-01-04T01:25:04;20.83;;;17.85;;
56712;SDS011;42589;45.536;9.032;2023-01-04T01:28:05;21.35;;;18.67;;
56712;SDS011;42589;45.536;9.032;2023-01-04T01:31:10;20.88;;;18.20;;
56712;SDS011;42589;45.536;9.032;2023-01-04T01:34:11;21.85;;;17.73;;
56712;SDS011;42589;45.536;9.032;2023-01-04T01:37:12;21.92;;;18.27;;
56712;SDS011;42589;45.536;9.032;2023-01-04T01:40:13;20.20;;;17.38;;
56712;SDS011;42589;45.536;9.032;2023-01-04T01:43:15;21.52;;;16.85;;
56712;SDS011;42589;45.536;9.032;2023-01-04T01:46:18;18.92;;;16.85;;
56712;SDS011;42589;45.536;9.032;2023-01-04T01:49:33;18.95;;;16.90;;
56712;SDS011;42589;45.536;9.032;2023-01-04T01:52:35;19.08;;;16.75;;
56712;SDS011;42589;45.536;9.032;2023-01-04T01:55:37;20.63;;;17.35;;
56712;SDS011;42589;45.536;9.032;2023-01-04T01:58:40;20.17;;;17.42;;
56712;SDS011;42589;45.536;9.032;2023-01-04T02:01:43;22.27;;;17.48;;
56712;SDS011;42589;45.536;9.032;2023-01-04T02:04:45;20.42;;;17.98;;
56712;SDS011;42589;45.536;9.032;2023-01-04T02:07:47;20.75;;;18.13;;
56712;SDS011;42589;45.536;9.032;2023-01-04T02:10:49;20.67;;;17.85;;
56712;SDS011;42589;45.536;9.032;2023-01-04T02:13:50;19.67;;;17.42;;
56712;SDS011;42589;45.536;9.032;2023-01-04T02:26:42;22.17;;;19.13;;
56712;SDS011;42589;45.536;9.032;2023-01-04T02:32:58;24.80;;;18.80;;
56712;SDS011;42589;45.536;9.032;2023-01-04T02:36:07;22.55;;;18.70;;
56712;SDS011;42589;45.536;9.032;2023-01-04T02:46:01;22.27;;;18.83;;
56712;SDS011;42589;45.536;9.032;2023-01-04T02:49:07;19.92;;;17.77;;
56712;SDS011;42589;45.536;9.032;2023-01-04T02:52:25;21.20;;;18.25;;
56712;SDS011;42589;45.536;9.032;2023-01-04T02:55:30;21.98;;;19.20;;
56712;SDS011;42589;45.536;9.032;2023-01-04T03:05:07;22.20;;;19.20;;
56712;SDS011;42589;45.536;9.032;2023-01-04T03:11:37;22.58;;;18.75;;
56712;SDS011;42589;45.536;9.032;2023-01-04T03:15:05;23.05;;;19.38;;
56712;SDS011;42589;45.536;9.032;2023-01-04T03:21:42;22.50;;;19.52;;
56712;SDS011;42589;45.536;9.032;2023-01-04T03:24:44;20.73;;;18.33;;
56712;SDS011;42589;45.536;9.032;2023-01-04T03:28:03;22.65;;;19.15;;
56712;SDS011;42589;45.536;9.032;2023-01-04T03:31:25;22.48;;;19.17;;
56712;SDS011;42589;45.536;9.032;2023-01-04T03:34:48;22.88;;;19.20;;
56712;SDS011;42589;45.536;9.032;2023-01-04T03:38:13;22.17;;;19.77;;
56712;SDS011;42589;45.536;9.032;2023-01-04T03:41:36;23.88;;;20.23;;
56712;SDS011;42589;45.536;9.032;2023-01-04T03:44:58;24.50;;;21.15;;
56712;SDS011;42589;45.536;9.032;2023-01-04T03:48:27;24.33;;;20.85;;
56712;SDS011;42589;45.536;9.032;2023-01-04T03:51:34;24.92;;;21.42;;
56712;SDS011;42589;45.536;9.032;2023-01-04T03:54:36;25.33;;;21.25;;
56712;SDS011;42589;45.536;9.032;2023-01-04T03:57:37;25.98;;;22.20;;
56712;SDS011;42589;45.536;9.032;2023-01-04T04:00:39;25.20;;;21.23;;
56712;SDS011;42589;45.536;9.032;2023-01-04T04:03:40;24.33;;;20.73;;
56712;SDS011;42589;45.536;9.032;2023-01-04T04:06:59;26.75;;;22.73;;
56712;SDS011;42589;45.536;9.032;2023-01-04T04:10:18;25.08;;;21.45;;
56712;SDS011;42589;45.536;9.032;2023-01-04T04:13:19;27.05;;;21.35;;
56712;SDS011;42589;45.536;9.032;2023-01-04T04:16:20;25.33;;;21.75;;
56712;SDS011;42589;45.536;9.032;2023-01-04T04:19:21;25.88;;;20.75;;
56712;SDS011;42589;45.536;9.032;2023-01-04T04:22:22;25.48;;;19.90;;
56712;SDS011;42589;45.536;9.032;2023-01-04T04:25:22;23.52;;;20.60;;
56712;SDS011;42589;45.536;9.032;2023-01-04T04:28:23;20.98;;;18.55;;
56712;SDS011;42589;45.536;9.032;2023-01-04T04:31:24;24.00;;;18.77;;
56712;SDS011;42589;45.536;9.032;2023-01-04T04:34:25;20.70;;;17.00;;
56712;SDS011;42589;45.536;9.032;2023-01-04T04:37:25;20.67;;;17.67;;
56712;SDS011;42589;45.536;9.032;2023-01-04T04:40:27;20.65;;;16.95;;
56712;SDS011;42589;45.536;9.032;2023-01-04T04:43:46;19.45;;;17.35;;
56712;SDS011;42589;45.536;9.032;2023-01-04T04:46:47;21.20;;;17.92;;
56712;SDS011;42589;45.536;9.032;2023-01-04T04:49:48;19.30;;;16.50;;
56712;SDS011;42589;45.536;9.032;2023-01-04T04:52:49;19.30;;;16.33;;
56712;SDS011;42589;45.536;9.032;2023-01-04T04:55:50;18.98;;;15.75;;
56712;SDS011;42589;45.536;9.032;2023-01-04T04:58:51;19.75;;;15.90;;
56712;SDS011;42589;45.536;9.032;2023-01-04T05:01:52;19.17;;;16.20;;
56712;SDS011;42589;45.536;9.032;2023-01-04T05:04:53;17.90;;;15.82;;
56712;SDS011;42589;45.536;9.032;2023-01-04T05:07:53;19.85;;;15.48;;
56712;SDS011;42589;45.536;9.032;2023-01-04T05:10:54;19.38;;;16.80;;
56712;SDS011;42589;45.536;9.032;2023-01-04T05:13:55;18.55;;;15.50;;
56712;SDS011;42589;45.536;9.032;2023-01-04T05:16:59;17.15;;;14.80;;
56712;SDS011;42589;45.536;9.032;2023-01-04T05:20:01;16.65;;;14.85;;
56712;SDS011;42589;45.536;9.032;2023-01-04T05:23:02;17.65;;;15.75;;
56712;SDS011;42589;45.536;9.032;2023-01-04T05:26:03;17.67;;;15.48;;
56712;SDS011;42589;45.536;9.032;2023-01-04T05:29:03;15.85;;;14.15;;
56712;SDS011;42589;45.536;9.032;2023-01-04T05:35:09;19.17;;;15.75;;
56712;SDS011;42589;45.536;9.032;2023-01-04T05:38:09;18.25;;;16.00;;
56712;SDS011;42589;45.536;9.032;2023-01-04T05:41:10;17.83;;;15.23;;
56712;SDS011;42589;45.536;9.032;2023-01-04T05:44:29;17.00;;;14.90;;
56712;SDS011;42589;45.536;9.032;2023-01-04T05:47:30;16.92;;;14.82;;
56712;SDS011;42589;45.536;9.032;2023-01-04T05:50:31;18.45;;;15.82;;
56712;SDS011;42589;45.536;9.032;2023-01-04T05:53:32;18.92;;;15.43;;
56712;SDS011;42589;45.536;9.032;2023-01-04T05:56:32;18.67;;;15.68;;
56712;SDS011;42589;45.536;9.032;2023-01-04T05:59:33;19.35;;;15.45;;
56712;SDS011;42589;45.536;9.032;2023-01-04T06:02:34;19.90;;;16.35;;
56712;SDS011;42589;45.536;9.032;2023-01-04T06:05:34;19.63;;;17.23;;
56712;SDS011;42589;45.536;9.032;2023-01-04T06:08:35;21.42;;;17.73;;
56712;SDS011;42589;45.536;9.032;2023-01-04T06:11:36;22.02;;;17.60;;
56712;SDS011;42589;45.536;9.032;2023-01-04T06:14:36;21.13;;;18.35;;
56712;SDS011;42589;45.536;9.032;2023-01-04T06:17:37;22.67;;;18.60;;
56712;SDS011;42589;45.536;9.032;2023-01-04T06:20:38;20.77;;;18.30;;
56712;SDS011;42589;45.536;9.032;2023-01-04T06:23:39;23.13;;;18.63;;
56712;SDS011;42589;45.536;9.032;2023-01-04T06:26:40;22.42;;;19.15;;
56712;SDS011;42589;45.536;9.032;2023-01-04T06:29:41;21.65;;;18.80;;
56712;SDS011;42589;45.536;9.032;2023-01-04T06:32:41;24.15;;;19.38;;
56712;SDS011;42589;45.536;9.032;2023-01-04T06:35:42;22.63;;;19.00;;
56712;SDS011;42589;45.536;9.032;2023-01-04T06:38:43;23.15;;;19.23;;
56712;SDS011;42589;45.536;9.032;2023-01-04T06:41:43;21.23;;;18.85;;
56712;SDS011;42589;45.536;9.032;2023-01-04T06:44:45;25.40;;;19.35;;
56712;SDS011;42589;45.536;9.032;2023-01-04T06:47:46;26.13;;;20.48;;
56712;SDS011;42589;45.536;9.032;2023-01-04T06:50:47;23.30;;;19.35;;
56712;SDS011;42589;45.536;9.032;2023-01-04T06:53:48;23.27;;;19.75;;
56712;SDS011;42589;45.536;9.032;2023-01-04T06:56:48;22.80;;;18.88;;
56712;SDS011;42589;45.536;9.032;2023-01-04T06:59:49;20.80;;;18.27;;
56712;SDS011;42589;45.536;9.032;2023-01-04T07:02:50;24.15;;;18.90;;
56712;SDS011;42589;45.536;9.032;2023-01-04T07:05:50;21.73;;;18.38;;
56712;SDS011;42589;45.536;9.032;2023-01-04T07:08:51;22.95;;;18.67;;
56712;SDS011;42589;45.536;9.032;2023-01-04T07:11:51;23.67;;;19.40;;
56712;SDS011;42589;45.536;9.032;2023-01-04T07:14:52;22.20;;;19.38;;
56712;SDS011;42589;45.536;9.032;2023-01-04T07:17:53;22.23;;;18.58;;
56712;SDS011;42589;45.536;9.032;2023-01-04T07:20:53;22.15;;;18.45;;
56712;SDS011;42589;45.536;9.032;2023-01-04T07:23:54;22.70;;;19.15;;
56712;SDS011;42589;45.536;9.032;2023-01-04T07:26:55;25.08;;;20.40;;
56712;SDS011;42589;45.536;9.032;2023-01-04T07:29:55;23.60;;;19.60;;
56712;SDS011;42589;45.536;9.032;2023-01-04T07:32:56;22.80;;;19.63;;
56712;SDS011;42589;45.536;9.032;2023-01-04T07:36:00;23.20;;;19.40;;
56712;SDS011;42589;45.536;9.032;2023-01-04T07:54:51;25.67;;;20.15;;
56712;SDS011;42589;45.536;9.032;2023-01-04T08:29:33;21.55;;;17.58;;
56712;SDS011;42589;45.536;9.032;2023-01-04T08:54:47;16.65;;;13.73;;
56712;SDS011;42589;45.536;9.032;2023-01-04T08:57:58;17.80;;;14.98;;
56712;SDS011;42589;45.536;9.032;2023-01-04T09:01:10;18.80;;;14.52;;
56712;SDS011;42589;45.536;9.032;2023-01-04T09:04:14;25.13;;;17.27;;
56712;SDS011;42589;45.536;9.032;2023-01-04T09:07:21;30.48;;;19.75;;
56712;SDS011;42589;45.536;9.032;2023-01-04T09:13:32;25.58;;;17.40;;
56712;SDS011;42589;45.536;9.032;2023-01-04T09:16:33;24.75;;;17.48;;
56712;SDS011;42589;45.536;9.032;2023-01-04T09:29:08;22.52;;;17.45;;
56712;SDS011;42589;45.536;9.032;2023-01-04T09:32:10;24.30;;;18.48;;
56712;SDS011;42589;45.536;9.032;2023-01-04T09:35:12;24.85;;;18.42;;
56712;SDS011;42589;45.536;9.032;2023-01-04T09:38:12;25.50;;;19.05;;
56712;SDS011;42589;45.536;9.032;2023-01-04T09:50:43;21.33;;;17.70;;
56712;SDS011;42589;45.536;9.032;2023-01-04T09:53:56;24.20;;;19.27;;
56712;SDS011;42589;45.536;9.032;2023-01-04T09:56:58;24.00;;;19.65;;
56712;SDS011;42589;45.536;9.032;2023-01-04T10:03:27;25.58;;;19.55;;
56712;SDS011;42589;45.536;9.032;2023-01-04T10:06:30;24.17;;;19.30;;
56712;SDS011;42589;45.536;9.032;2023-01-04T10:09:32;27.33;;;20.30;;
56712;SDS011;42589;45.536;9.032;2023-01-04T10:15:57;24.95;;;18.95;;
56712;SDS011;42589;45.536;9.032;2023-01-04T10:22:40;26.10;;;19.13;;
56712;SDS011;42589;45.536;9.032;2023-01-04T10:25:50;25.33;;;19.95;;
56712;SDS011;42589;45.536;9.032;2023-01-04T10:35:27;23.70;;;20.60;;
56712;SDS011;42589;45.536;9.032;2023-01-04T10:38:31;25.45;;;19.73;;
56712;SDS011;42589;45.536;9.032;2023-01-04T10:41:34;25.40;;;19.48;;
56712;SDS011;42589;45.536;9.032;2023-01-04T10:44:37;27.65;;;21.67;;
56712;SDS011;42589;45.536;9.032;2023-01-04T10:47:47;31.30;;;22.13;;
56712;SDS011;42589;45.536;9.032;2023-01-04T10:50:56;27.45;;;20.98;;
56712;SDS011;42589;45.536;9.032;2023-01-04T11:00:33;31.50;;;21.42;;
56712;SDS011;42589;45.536;9.032;2023-01-04T11:04:00;32.65;;;23.48;;
56712;SDS011;42589;45.536;9.032;2023-01-04T11:07:00;38.53;;;26.33;;
56712;SDS011;42589;45.536;9.032;2023-01-04T11:10:05;40.53;;;28.05;;
56712;SDS011;42589;45.536;9.032;2023-01-04T11:13:07;37.35;;;26.38;;
56712;SDS011;42589;45.536;9.032;2023-01-04T11:16:15;38.30;;;26.20;;
56712;SDS011;42589;45.536;9.032;2023-01-04T11:19:16;37.30;;;26.25;;
56712;SDS011;42589;45.536;9.032;2023-01-04T11:25:24;34.00;;;25.45;;
56712;SDS011;42589;45.536;9.032;2023-01-04T11:34:49;35.17;;;26.10;;
56712;SDS011;42589;45.536;9.032;2023-01-04T11:37:51;34.95;;;25.88;;
56712;SDS011;42589;45.536;9.032;2023-01-04T11:41:06;34.37;;;26.10;;
56712;SDS011;42589;45.536;9.032;2023-01-04T11:44:07;35.70;;;26.33;;
56712;SDS011;42589;45.536;9.032;2023-01-04T11:47:17;33.47;;;25.95;;
56712;SDS011;42589;45.536;9.032;2023-01-04T11:53:38;38.70;;;25.70;;
56712;SDS011;42589;45.536;9.032;2023-01-04T11:56:39;31.90;;;24.15;;
56712;SDS011;42589;45.536;9.032;2023-01-04T12:00:06;35.03;;;25.42;;
56712;SDS011;42589;45.536;9.032;2023-01-04T12:03:11;31.55;;;24.25;;
56712;SDS011;42589;45.536;9.032;2023-01-04T12:06:15;32.13;;;24.90;;
56712;SDS011;42589;45.536;9.032;2023-01-04T12:09:17;31.25;;;24.35;;
56712;SDS011;42589;45.536;9.032;2023-01-04T12:12:26;29.38;;;22.70;;
56712;SDS011;42589;45.536;9.032;2023-01-04T12:15:37;30.58;;;23.55;;
56712;SDS011;42589;45.536;9.032;2023-01-04T12:18:40;28.45;;;22.38;;
56712;SDS011;42589;45.536;9.032;2023-01-04T12:21:42;29.60;;;23.33;;
56712;SDS011;42589;45.536;9.032;2023-01-04T12:24:43;29.10;;;22.77;;
56712;SDS011;42589;45.536;9.032;2023-01-04T12:27:50;30.88;;;22.75;;
56712;SDS011;42589;45.536;9.032;2023-01-04T12:30:51;27.38;;;21.70;;
56712;SDS011;42589;45.536;9.032;2023-01-04T12:33:53;27.13;;;21.40;;
56712;SDS011;42589;45.536;9.032;2023-01-04T12:36:56;26.92;;;20.08;;
56712;SDS011;42589;45.536;9.032;2023-01-04T12:39:57;26.75;;;20.25;;
56712;SDS011;42589;45.536;9.032;2023-01-04T12:49:49;23.88;;;18.85;;
56712;SDS011;42589;45.536;9.032;2023-01-04T12:52:55;24.55;;;19.40;;
56712;SDS011;42589;45.536;9.032;2023-01-04T12:55:56;26.08;;;20.10;;
56712;SDS011;42589;45.536;9.032;2023-01-04T12:59:07;24.55;;;19.85;;
56712;SDS011;42589;45.536;9.032;2023-01-04T13:02:16;26.13;;;19.90;;
56712;SDS011;42589;45.536;9.032;2023-01-04T13:08:17;24.77;;;19.48;;
56712;SDS011;42589;45.536;9.032;2023-01-04T13:11:23;23.25;;;18.50;;
56712;SDS011;42589;45.536;9.032;2023-01-04T13:14:29;21.40;;;17.15;;
56712;SDS011;42589;45.536;9.032;2023-01-04T13:17:37;23.20;;;17.75;;
56712;SDS011;42589;45.536;9.032;2023-01-04T13:20:38;20.92;;;17.70;;
56712;SDS011;42589;45.536;9.032;2023-01-04T13:23:39;22.40;;;18.13;;
56712;SDS011;42589;45.536;9.032;2023-01-04T13:26:41;24.05;;;17.70;;
56712;SDS011;42589;45.536;9.032;2023-01-04T13:29:45;23.95;;;18.65;;
56712;SDS011;42589;45.536;9.032;2023-01-04T13:32:45;23.90;;;19.27;;
56712;SDS011;42589;45.536;9.032;2023-01-04T13:36:07;27.17;;;20.77;;
56712;SDS011;42589;45.536;9.032;2023-01-04T13:39:10;30.83;;;24.55;;
56712;SDS011;42589;45.536;9.032;2023-01-04T13:42:15;32.88;;;26.25;;
56712;SDS011;42589;45.536;9.032;2023-01-04T13:48:20;30.88;;;24.08;;
56712;SDS011;42589;45.536;9.032;2023-01-04T13:51:24;29.08;;;22.02;;
56712;SDS011;42589;45.536;9.032;2023-01-04T13:54:25;35.35;;;27.17;;
56712;SDS011;42589;45.536;9.032;2023-01-04T13:57:25;37.53;;;27.10;;
56712;SDS011;42589;45.536;9.032;2023-01-04T14:00:39;44.50;;;31.65;;
56712;SDS011;42589;45.536;9.032;2023-01-04T14:06:47;45.47;;;33.72;;
56712;SDS011;42589;45.536;9.032;2023-01-04T14:09:51;50.67;;;38.97;;
56712;SDS011;42589;45.536;9.032;2023-01-04T14:12:52;52.70;;;40.13;;
56712;SDS011;42589;45.536;9.032;2023-01-04T14:16:04;50.20;;;38.75;;
56712;SDS011;42589;45.536;9.032;2023-01-04T14:28:37;54.25;;;41.55;;
56712;SDS011;42589;45.536;9.032;2023-01-04T14:31:37;52.03;;;39.65;;
56712;SDS011;42589;45.536;9.032;2023-01-04T14:34:39;51.28;;;39.47;;
56712;SDS011;42589;45.536;9.032;2023-01-04T14:37:39;54.97;;;40.95;;
56712;SDS011;42589;45.536;9.032;2023-01-04T14:40:40;53.35;;;39.72;;
56712;SDS011;42589;45.536;9.032;2023-01-04T14:43:48;56.50;;;40.72;;
56712;SDS011;42589;45.536;9.032;2023-01-04T14:46:50;54.50;;;40.53;;
56712;SDS011;42589;45.536;9.032;2023-01-04T14:49:51;59.22;;;41.17;;
56712;SDS011;42589;45.536;9.032;2023-01-04T14:52:53;53.60;;;40.97;;
56712;SDS011;42589;45.536;9.032;2023-01-04T14:55:53;55.90;;;40.75;;
56712;SDS011;42589;45.536;9.032;2023-01-04T14:58:54;57.60;;;42.33;;
56712;SDS011;42589;45.536;9.032;2023-01-04T15:01:55;57.38;;;42.38;;
56712;SDS011;42589;45.536;9.032;2023-01-04T15:04:56;53.10;;;40.33;;
56712;SDS011;42589;45.536;9.032;2023-01-04T15:07:57;54.67;;;41.28;;
56712;SDS011;42589;45.536;9.032;2023-01-04T15:10:58;51.17;;;39.80;;
56712;SDS011;42589;45.536;9.032;2023-01-04T15:13:58;54.17;;;39.33;;
56712;SDS011;42589;45.536;9.032;2023-01-04T15:16:59;56.25;;;41.20;;
56712;SDS011;42589;45.536;9.032;2023-01-04T15:20:00;54.33;;;39.28;;
56712;SDS011;42589;45.536;9.032;2023-01-04T15:23:02;56.45;;;39.97;;
56712;SDS011;42589;45.536;9.032;2023-01-04T15:26:03;68.13;;;42.20;;
56712;SDS011;42589;45.536;9.032;2023-01-04T15:29:04;56.13;;;40.55;;
56712;SDS011;42589;45.536;9.032;2023-01-04T15:32:05;54.80;;;40.08;;
56712;SDS011;42589;45.536;9.032;2023-01-04T15:35:06;54.33;;;38.55;;
56712;SDS011;42589;45.536;9.032;2023-01-04T15:38:06;56.75;;;41.58;;
56712;SDS011;42589;45.536;9.032;2023-01-04T15:41:11;58.40;;;42.28;;
56712;SDS011;42589;45.536;9.032;2023-01-04T15:44:34;58.47;;;42.13;;
56712;SDS011;42589;45.536;9.032;2023-01-04T15:47:36;59.20;;;41.80;;
56712;SDS011;42589;45.536;9.032;2023-01-04T15:50:37;59.55;;;41.97;;
56712;SDS011;42589;45.536;9.032;2023-01-04T15:53:38;62.03;;;41.70;;
56712;SDS011;42589;45.536;9.032;2023-01-04T15:56:39;59.63;;;42.30;;
56712;SDS011;42589;45.536;9.032;2023-01-04T15:59:40;61.45;;;43.65;;
56712;SDS011;42589;45.536;9.032;2023-01-04T16:02:41;65.68;;;44.85;;
56712;SDS011;42589;45.536;9.032;2023-01-04T16:05:41;63.55;;;43.20;;
56712;SDS011;42589;45.536;9.032;2023-01-04T16:08:42;62.25;;;43.83;;
56712;SDS011;42589;45.536;9.032;2023-01-04T16:11:43;64.80;;;43.13;;
56712;SDS011;42589;45.536;9.032;2023-01-04T16:15:02;60.90;;;42.85;;
56712;SDS011;42589;45.536;9.032;2023-01-04T16:18:03;58.55;;;43.47;;
56712;SDS011;42589;45.536;9.032;2023-01-04T16:21:04;59.78;;;43.20;;
56712;SDS011;42589;45.536;9.032;2023-01-04T16:24:07;60.72;;;42.85;;
56712;SDS011;42589;45.536;9.032;2023-01-04T16:27:09;63.85;;;43.63;;
56712;SDS011;42589;45.536;9.032;2023-01-04T16:30:11;63.35;;;43.20;;
56712;SDS011;42589;45.536;9.032;2023-01-04T16:33:12;67.03;;;45.63;;
56712;SDS011;42589;45.536;9.032;2023-01-04T16:36:13;65.88;;;45.70;;
56712;SDS011;42589;45.536;9.032;2023-01-04T16:39:14;64.50;;;45.88;;
56712;SDS011;42589;45.536;9.032;2023-01-04T16:42:15;65.25;;;45.80;;
56712;SDS011;42589;45.536;9.032;2023-01-04T16:45:16;70.35;;;46.45;;
56712;SDS011;42589;45.536;9.032;2023-01-04T16:48:17;67.63;;;45.28;;
56712;SDS011;42589;45.536;9.032;2023-01-04T16:51:18;69.05;;;44.78;;
56712;SDS011;42589;45.536;9.032;2023-01-04T16:54:19;62.88;;;43.58;;
56712;SDS011;42589;45.536;9.032;2023-01-04T16:57:21;60.13;;;42.78;;
56712;SDS011;42589;45.536;9.032;2023-01-04T17:00:22;64.70;;;44.38;;
56712;SDS011;42589;45.536;9.032;2023-01-04T17:03:23;60.42;;;42.28;;
56712;SDS011;42589;45.536;9.032;2023-01-04T17:06:26;63.40;;;43.38;;
56712;SDS011;42589;45.536;9.032;2023-01-04T17:09:26;64.03;;;43.60;;
56712;SDS011;42589;45.536;9.032;2023-01-04T17:12:28;64.47;;;43.33;;
56712;SDS011;42589;45.536;9.032;2023-01-04T17:15:28;64.63;;;42.42;;
56712;SDS011;42589;45.536;9.032;2023-01-04T17:18:29;64.88;;;44.30;;
56712;SDS011;42589;45.536;9.032;2023-01-04T17:21:30;63.97;;;42.83;;
56712;SDS011;42589;45.536;9.032;2023-01-04T17:24:31;60.40;;;41.17;;
56712;SDS011;42589;45.536;9.032;2023-01-04T17:27:31;58.83;;;41.28;;
56712;SDS011;42589;45.536;9.032;2023-01-04T17:30:35;60.67;;;41.35;;
56712;SDS011;42589;45.536;9.032;2023-01-04T17:33:37;62.08;;;43.75;;
56712;SDS011;42589;45.536;9.032;2023-01-04T17:36:38;61.60;;;42.92;;
56712;SDS011;42589;45.536;9.032;2023-01-04T17:39:38;63.00;;;42.08;;
56712;SDS011;42589;45.536;9.032;2023-01-04T17:42:39;64.40;;;42.40;;
56712;SDS011;42589;45.536;9.032;2023-01-04T17:45:41;64.00;;;42.90;;
56712;SDS011;42589;45.536;9.032;2023-01-04T17:48:45;61.97;;;42.78;;
56712;SDS011;42589;45.536;9.032;2023-01-04T17:51:46;66.88;;;44.13;;
56712;SDS011;42589;45.536;9.032;2023-01-04T17:54:46;65.18;;;44.53;;
56712;SDS011;42589;45.536;9.032;2023-01-04T17:57:49;68.93;;;44.00;;
56712;SDS011;42589;45.536;9.032;2023-01-04T18:00:50;69.93;;;45.15;;
56712;SDS011;42589;45.536;9.032;2023-01-04T18:03:53;72.15;;;45.17;;
56712;SDS011;42589;45.536;9.032;2023-01-04T18:06:54;66.97;;;45.08;;
56712;SDS011;42589;45.536;9.032;2023-01-04T18:09:54;62.42;;;42.58;;
56712;SDS011;42589;45.536;9.032;2023-01-04T18:12:55;68.80;;;43.05;;
56712;SDS011;42589;45.536;9.032;2023-01-04T18:15:59;67.78;;;44.70;;
56712;SDS011;42589;45.536;9.032;2023-01-04T18:19:00;67.85;;;44.78;;
56712;SDS011;42589;45.536;9.032;2023-01-04T18:22:01;68.65;;;45.45;;
56712;SDS011;42589;45.536;9.032;2023-01-04T18:25:02;69.95;;;45.63;;
56712;SDS011;42589;45.536;9.032;2023-01-04T18:28:03;72.20;;;44.80;;
56712;SDS011;42589;45.536;9.032;2023-01-04T18:31:08;71.57;;;47.00;;
56712;SDS011;42589;45.536;9.032;2023-01-04T18:34:09;71.57;;;46.38;;
56712;SDS011;42589;45.536;9.032;2023-01-04T18:37:10;70.63;;;47.20;;
56712;SDS011;42589;45.536;9.032;2023-01-04T18:40:10;67.07;;;45.00;;
56712;SDS011;42589;45.536;9.032;2023-01-04T18:43:11;70.00;;;46.72;;
56712;SDS011;42589;45.536;9.032;2023-01-04T18:49:22;71.03;;;47.25;;
56712;SDS011;42589;45.536;9.032;2023-01-04T18:52:22;72.70;;;47.28;;
56712;SDS011;42589;45.536;9.032;2023-01-04T18:55:23;77.20;;;47.33;;
56712;SDS011;42589;45.536;9.032;2023-01-04T18:58:24;71.13;;;45.22;;
56712;SDS011;42589;45.536;9.032;2023-01-04T19:01:25;74.75;;;46.55;;
56712;SDS011;42589;45.536;9.032;2023-01-04T19:04:29;77.88;;;48.38;;
56712;SDS011;42589;45.536;9.032;2023-01-04T19:07:30;71.85;;;46.45;;
56712;SDS011;42589;45.536;9.032;2023-01-04T19:10:30;74.65;;;47.97;;
56712;SDS011;42589;45.536;9.032;2023-01-04T19:13:31;73.68;;;47.25;;
56712;SDS011;42589;45.536;9.032;2023-01-04T19:16:31;75.72;;;49.80;;
56712;SDS011;42589;45.536;9.032;2023-01-04T19:19:33;77.72;;;49.72;;
56712;SDS011;42589;45.536;9.032;2023-01-04T19:22:33;85.03;;;53.65;;
56712;SDS011;42589;45.536;9.032;2023-01-04T19:25:34;79.68;;;51.40;;
56712;SDS011;42589;45.536;9.032;2023-01-04T19:28:37;79.80;;;50.73;;
56712;SDS011;42589;45.536;9.032;2023-01-04T19:31:38;85.43;;;53.65;;
56712;SDS011;42589;45.536;9.032;2023-01-04T19:34:39;90.00;;;55.83;;
56712;SDS011;42589;45.536;9.032;2023-01-04T19:37:40;83.70;;;54.72;;
56712;SDS011;42589;45.536;9.032;2023-01-04T19:40:40;85.13;;;56.00;;
56712;SDS011;42589;45.536;9.032;2023-01-04T19:43:41;83.53;;;55.08;;
56712;SDS011;42589;45.536;9.032;2023-01-04T19:46:42;95.03;;;61.15;;
56712;SDS011;42589;45.536;9.032;2023-01-04T19:49:43;92.93;;;60.70;;
56712;SDS011;42589;45.536;9.032;2023-01-04T19:52:45;92.25;;;59.65;;
56712;SDS011;42589;45.536;9.032;2023-01-04T19:55:46;95.55;;;59.47;;
56712;SDS011;42589;45.536;9.032;2023-01-04T19:58:47;86.70;;;57.80;;
56712;SDS011;42589;45.536;9.032;2023-01-04T20:01:48;86.10;;;55.15;;
56712;SDS011;42589;45.536;9.032;2023-01-04T20:04:49;82.47;;;54.03;;
56712;SDS011;42589;45.536;9.032;2023-01-04T20:07:50;85.93;;;57.05;;
56712;SDS011;42589;45.536;9.032;2023-01-04T20:10:54;80.05;;;54.72;;
56712;SDS011;42589;45.536;9.032;2023-01-04T20:13:55;84.70;;;55.30;;
56712;SDS011;42589;45.536;9.032;2023-01-04T20:16:58;79.60;;;52.07;;
56712;SDS011;42589;45.536;9.032;2023-01-04T20:19:59;81.97;;;53.75;;
56712;SDS011;42589;45.536;9.032;2023-01-04T20:23:04;80.95;;;54.30;;
56712;SDS011;42589;45.536;9.032;2023-01-04T20:26:23;80.65;;;53.42;;
56712;SDS011;42589;45.536;9.032;2023-01-04T20:29:28;76.07;;;52.53;;
56712;SDS011;42589;45.536;9.032;2023-01-04T20:32:29;82.03;;;53.50;;
56712;SDS011;42589;45.536;9.032;2023-01-04T20:35:30;86.13;;;55.40;;
56712;SDS011;42589;45.536;9.032;2023-01-04T20:38:35;82.55;;;52.88;;
56712;SDS011;42589;45.536;9.032;2023-01-04T20:41:36;71.65;;;49.50;;
56712;SDS011;42589;45.536;9.032;2023-01-04T20:44:37;71.38;;;49.78;;
56712;SDS011;42589;45.536;9.032;2023-01-04T20:47:38;77.65;;;50.67;;
56712;SDS011;42589;45.536;9.032;2023-01-04T20:50:39;75.80;;;51.15;;
56712;SDS011;42589;45.536;9.032;2023-01-04T20:53:40;77.22;;;52.15;;
56712;SDS011;42589;45.536;9.032;2023-01-04T20:56:41;72.50;;;50.53;;
56712;SDS011;42589;45.536;9.032;2023-01-04T20:59:42;72.57;;;50.03;;
56712;SDS011;42589;45.536;9.032;2023-01-04T21:02:42;74.53;;;51.05;;